LYNI/INI METAR and TAF weather

Enter ICAO airport designator
Station Type Date Time Source
LYNI METAR 2019/04/25 12:30 UTC NOAA

LYNI 251230Z 33003KT 290V070 9999 FEW043 26/08 Q1020 NOSIG


Station Type Date Time Source
LYNI Decoded METAR 2019/04/25 12:30 UTC NOAA

Nis, Serbia and Montenegro (LYNI) 43-20N 021-54E 202M
Apr 25, 2019 - 08:30 AM EDT / 2019.04.25 1230 UTC
Wind: from the NNW (330 degrees) at 3 MPH (3 KT) (direction variable):0
Visibility: greater than 7 mile(s):0
Sky conditions: mostly clear
Temperature: 78 F (26 C)
Dew Point: 46 F (8 C)
Relative Humidity: 31%
Pressure (altimeter): 30.12 in. Hg (1020 hPa)
ob: LYNI 251230Z 33003KT 290V070 9999 FEW043 26/08 Q1020 NOSIG
cycle: 12

Station Type Date Time Source
LYNI TAF 2019/04/25 12:21 UTC NOAA

TAF LYNI 251100Z 2512/2612 06007KT CAVOK TX27/2513Z TN11/2604Z
TEMPO 2517/2521 SHRA SCT040TCU

Example: see airport list